createdAt,value
2024-02-07T00:17:43.540Z,66.14
2024-02-07T00:43:33.121Z,67.03
2024-02-07T00:49:50.070Z,67.10
2024-02-07T01:22:13.595Z,67.48
2024-02-07T01:28:41.343Z,67.51
2024-02-07T02:00:54.754Z,68.49
2024-02-07T02:38:52.789Z,68.33
2024-02-07T02:44:18.934Z,68.28
2024-02-07T02:50:20.402Z,68.21
2024-02-07T02:56:31.796Z,68.59
2024-02-07T03:02:44.090Z,68.88
2024-02-07T03:09:06.762Z,69.16
2024-02-07T03:15:17.438Z,69.30
2024-02-07T03:21:37.276Z,69.35
2024-02-07T03:27:51.755Z,69.37
2024-02-07T03:33:59.467Z,69.68
2024-02-07T03:40:24.337Z,69.90
2024-02-07T03:46:48.681Z,69.88
2024-02-07T04:28:56.767Z,70.67
2024-02-07T04:34:57.411Z,70.72
2024-02-07T04:40:32.461Z,70.79
2024-02-07T04:46:09.018Z,70.79
2024-02-07T04:51:37.823Z,70.77
2024-02-07T04:57:43.965Z,70.64
2024-02-07T05:03:49.973Z,70.58
2024-02-07T05:10:14.250Z,70.51
2024-02-07T05:15:51.596Z,70.68
2024-02-07T05:21:25.825Z,70.76
2024-02-07T05:27:10.765Z,70.78
2024-02-07T05:33:05.975Z,70.64
2024-02-07T05:38:54.414Z,70.66
2024-02-07T05:44:22.779Z,70.91
2024-02-07T05:50:24.906Z,70.88
2024-02-07T05:56:48.886Z,70.88
2024-02-07T06:02:46.647Z,70.99
2024-02-07T06:08:26.817Z,71.10
2024-02-07T06:14:19.144Z,70.99
2024-02-07T06:20:18.241Z,71.01
2024-02-07T06:25:43.225Z,71.13
2024-02-07T06:43:10.060Z,70.96
2024-02-07T07:15:22.891Z,70.73
2024-02-07T07:21:43.774Z,70.45
2024-02-07T07:28:11.017Z,70.47
2024-02-07T07:34:37.656Z,70.54
2024-02-07T07:40:43.301Z,70.35
2024-02-07T07:46:46.955Z,69.81
2024-02-07T08:04:34.953Z,69.90
2024-02-07T08:10:00.636Z,70.43
2024-02-07T08:15:10.654Z,71.92
2024-02-07T08:21:06.249Z,73.84
2024-02-07T08:27:04.603Z,76.34
2024-02-07T09:27:01.240Z,87.48
2024-02-07T09:33:01.043Z,87.94
2024-02-07T09:39:08.099Z,88.30
2024-02-07T09:45:16.422Z,88.71
2024-02-07T09:51:22.541Z,87.87
2024-02-07T11:11:00.215Z,85.60
2024-02-07T11:17:16.596Z,84.98
2024-02-07T11:23:39.884Z,84.89
2024-02-07T11:30:06.604Z,84.50
2024-02-07T11:36:47.967Z,84.10
2024-02-07T12:02:37.116Z,84.99
2024-02-07T12:14:56.572Z,85.53
2024-02-07T12:34:14.801Z,85.86
2024-02-07T13:22:10.097Z,84.77
2024-02-07T13:28:11.799Z,84.16
2024-02-07T13:34:18.859Z,83.73
2024-02-07T13:40:49.228Z,84.34
2024-02-07T13:47:08.739Z,83.99
2024-02-07T13:53:34.902Z,83.71
2024-02-07T13:59:50.266Z,83.92
2024-02-07T14:06:17.807Z,83.72
2024-02-07T14:31:10.135Z,82.39
2024-02-07T14:56:22.528Z,82.01
2024-02-07T15:02:07.142Z,82.59
2024-02-07T15:08:21.509Z,82.23
2024-02-07T15:14:21.344Z,82.14
2024-02-07T15:20:35.168Z,81.83
2024-02-07T15:26:51.468Z,81.01
2024-02-07T15:32:17.871Z,80.85
2024-02-07T15:38:13.464Z,81.04
2024-02-07T16:52:25.714Z,82.90
2024-02-07T16:58:57.360Z,82.81
2024-02-07T17:05:10.640Z,82.78
2024-02-07T17:11:13.007Z,82.74
2024-02-07T17:17:10.900Z,82.69
2024-02-07T17:22:42.910Z,82.35
2024-02-07T17:28:29.369Z,82.22
2024-02-07T17:34:33.534Z,82.27
2024-02-07T17:40:07.390Z,82.32
2024-02-07T17:46:24.503Z,82.14
2024-02-07T17:52:29.639Z,81.74
2024-02-07T17:58:30.215Z,81.77
2024-02-07T18:04:50.946Z,81.44
2024-02-07T18:10:48.240Z,81.38
2024-02-07T18:16:46.985Z,81.36
2024-02-07T18:22:04.853Z,81.53
2024-02-07T18:27:23.536Z,81.73
2024-02-07T18:32:52.502Z,81.60
2024-02-07T18:38:03.781Z,81.92
2024-02-07T18:43:09.283Z,81.88
2024-02-07T18:48:13.775Z,81.92
2024-02-07T18:53:29.400Z,81.94
2024-02-07T18:58:39.809Z,82.09
2024-02-07T19:03:59.398Z,82.16
2024-02-07T19:09:17.255Z,82.17
2024-02-07T19:15:16.366Z,82.36
2024-02-07T19:20:55.099Z,82.38
2024-02-07T19:27:07.890Z,82.57
2024-02-07T20:29:05.906Z,83.48
2024-02-07T20:35:12.184Z,83.63
2024-02-07T20:40:26.434Z,83.87
2024-02-07T20:45:41.391Z,83.96
2024-02-07T20:51:17.021Z,84.02
2024-02-07T20:57:03.605Z,84.04
2024-02-07T21:02:24.256Z,84.21
2024-02-07T21:08:05.298Z,84.31
2024-02-07T21:13:11.524Z,84.39
2024-02-07T21:18:24.613Z,84.53
2024-02-07T21:23:37.150Z,84.58
2024-02-07T21:28:44.308Z,84.57
2024-02-07T21:33:55.593Z,84.37
2024-02-07T21:39:36.069Z,84.56
2024-02-07T21:45:11.955Z,84.94
2024-02-07T21:50:28.137Z,85.18
2024-02-07T21:55:38.705Z,84.96
2024-02-07T22:00:48.940Z,84.74
2024-02-07T22:05:54.597Z,84.76
2024-02-07T22:11:05.355Z,84.84
2024-02-07T22:16:34.251Z,84.26
2024-02-07T22:21:55.237Z,84.22
2024-02-07T22:27:05.851Z,84.32
2024-02-07T22:32:17.710Z,84.23
2024-02-07T22:37:38.578Z,84.43
2024-02-07T22:42:46.197Z,84.47
2024-02-07T22:47:57.500Z,84.63
2024-02-07T22:53:05.254Z,84.62
2024-02-07T22:58:13.589Z,84.64
2024-02-07T23:03:23.240Z,84.74
2024-02-07T23:08:30.550Z,84.76
2024-02-07T23:13:36.586Z,84.69
2024-02-07T23:18:41.700Z,84.71
2024-02-07T23:23:49.881Z,84.61
2024-02-07T23:29:06.306Z,84.69
2024-02-07T23:34:19.761Z,84.67
2024-02-07T23:39:54.786Z,84.67
2024-02-07T23:45:02.401Z,84.84
2024-02-07T23:50:32.057Z,84.93
2024-02-07T23:55:41.813Z,84.92
